createdAt,value
2024-03-03T00:00:13.591Z,0.00
2024-03-03T00:01:13.789Z,0.00
2024-03-03T00:02:13.986Z,0.00
2024-03-03T00:03:14.104Z,0.00
2024-03-03T00:04:14.293Z,0.00
2024-03-03T00:05:14.420Z,0.00
2024-03-03T00:06:14.544Z,0.00
2024-03-03T00:07:14.749Z,0.00
2024-03-03T00:08:14.828Z,0.00
2024-03-03T00:09:14.956Z,0.00
2024-03-03T00:10:15.207Z,0.00
2024-03-03T00:11:15.345Z,0.00
2024-03-03T00:12:15.462Z,0.00
2024-03-03T00:13:15.717Z,0.00
2024-03-03T00:14:15.716Z,0.00
2024-03-03T00:15:15.870Z,0.00
2024-03-03T00:16:16.069Z,0.00
2024-03-03T00:17:16.158Z,0.00
2024-03-03T00:18:16.362Z,0.00
2024-03-03T00:19:16.516Z,0.00
2024-03-03T00:20:16.667Z,0.00
2024-03-03T00:21:16.814Z,0.00
2024-03-03T00:22:17.006Z,0.00
2024-03-03T00:23:17.175Z,0.00
2024-03-03T00:24:17.318Z,0.00
2024-03-03T00:25:17.516Z,0.00
2024-03-03T00:26:17.613Z,0.00
2024-03-03T00:27:17.806Z,0.00
2024-03-03T00:28:18.047Z,0.00
2024-03-03T00:29:18.081Z,0.00
2024-03-03T00:30:18.235Z,0.00
2024-03-03T00:31:18.370Z,0.00
2024-03-03T00:32:18.515Z,0.00
2024-03-03T00:33:18.727Z,0.00
2024-03-03T00:34:18.944Z,0.00
2024-03-03T00:35:19.007Z,0.00
2024-03-03T00:36:19.165Z,0.00
2024-03-03T00:37:19.373Z,0.00
2024-03-03T00:38:19.419Z,0.00
2024-03-03T00:39:19.558Z,0.00
2024-03-03T00:40:19.946Z,0.00
2024-03-03T00:41:19.873Z,0.00
2024-03-03T00:42:20.021Z,0.00
2024-03-03T00:43:20.223Z,0.00
2024-03-03T00:44:20.259Z,0.00
2024-03-03T00:45:20.413Z,0.00
2024-03-03T00:46:20.587Z,0.00
2024-03-03T00:47:20.757Z,0.00
2024-03-03T00:48:20.916Z,0.00
2024-03-03T00:49:21.143Z,0.00
2024-03-03T00:50:21.135Z,0.00
2024-03-03T00:51:21.287Z,0.00
2024-03-03T00:52:21.484Z,0.00
2024-03-03T00:53:21.613Z,0.00
2024-03-03T00:54:21.804Z,0.00
2024-03-03T00:55:22.010Z,0.00
2024-03-03T00:56:22.051Z,0.00
2024-03-03T00:57:22.207Z,0.00
2024-03-03T00:58:22.459Z,0.00
2024-03-03T00:59:22.508Z,0.00
2024-03-03T01:00:22.662Z,0.00
2024-03-03T01:01:22.840Z,0.00
2024-03-03T01:02:23.027Z,0.00
2024-03-03T01:03:23.040Z,0.00
2024-03-03T01:04:23.210Z,0.00
2024-03-03T01:05:23.326Z,0.00
2024-03-03T01:06:23.516Z,0.00
2024-03-03T01:07:23.663Z,0.00
2024-03-03T01:08:23.809Z,0.00
2024-03-03T01:09:24.004Z,0.00
2024-03-03T01:10:24.171Z,0.00
2024-03-03T01:11:24.336Z,0.00
2024-03-03T01:12:24.467Z,0.00
2024-03-03T01:13:24.691Z,0.00
2024-03-03T01:14:24.799Z,0.00
2024-03-03T01:15:24.972Z,0.00
2024-03-03T01:16:25.059Z,0.00
2024-03-03T01:17:25.228Z,0.00
2024-03-03T01:18:25.384Z,0.00
2024-03-03T01:19:25.653Z,0.00
2024-03-03T01:20:25.674Z,0.00
2024-03-03T01:21:25.819Z,0.00
2024-03-03T01:22:26.048Z,0.00
2024-03-03T01:23:26.176Z,0.00
2024-03-03T01:24:26.318Z,0.00
2024-03-03T01:25:26.506Z,0.00
2024-03-03T01:26:26.623Z,0.00
2024-03-03T01:27:26.800Z,0.00
2024-03-03T01:28:26.972Z,0.00
2024-03-03T01:29:27.090Z,0.00
2024-03-03T01:30:27.260Z,0.00
2024-03-03T01:31:27.402Z,0.00
2024-03-03T01:32:27.563Z,0.00
2024-03-03T01:33:27.693Z,0.00
2024-03-03T01:34:27.907Z,0.00
2024-03-03T01:35:28.033Z,0.00
2024-03-03T01:36:28.197Z,0.00
2024-03-03T01:37:28.337Z,0.00
2024-03-03T01:38:28.490Z,0.00
2024-03-03T01:39:28.640Z,0.00
2024-03-03T01:40:28.836Z,0.00
2024-03-03T01:41:28.969Z,0.00
2024-03-03T01:42:29.130Z,0.00
2024-03-03T01:43:29.268Z,0.00
2024-03-03T01:44:29.402Z,0.00
2024-03-03T01:45:29.562Z,0.00
2024-03-03T01:46:29.706Z,0.00
2024-03-03T01:47:29.910Z,0.00
2024-03-03T01:48:30.055Z,0.00
2024-03-03T01:49:30.202Z,0.00
2024-03-03T01:50:30.342Z,0.00
2024-03-03T01:51:30.502Z,0.00
2024-03-03T01:52:30.703Z,0.00
2024-03-03T01:53:30.846Z,0.00
2024-03-03T01:54:31.030Z,0.00
2024-03-03T01:55:31.148Z,0.00
2024-03-03T01:56:31.306Z,0.00
2024-03-03T01:57:31.463Z,0.00
2024-03-03T01:58:31.607Z,0.00
2024-03-03T01:59:31.763Z,0.00
2024-03-03T02:00:31.918Z,0.00
2024-03-03T02:01:32.153Z,0.00
2024-03-03T02:02:32.185Z,0.00
2024-03-03T02:03:32.354Z,0.00
2024-03-03T02:04:32.504Z,0.00
2024-03-03T02:05:32.690Z,0.00
2024-03-03T02:06:32.832Z,0.00
2024-03-03T02:07:33.010Z,0.00
2024-03-03T02:08:33.172Z,0.00
2024-03-03T02:09:33.323Z,0.00
2024-03-03T02:10:33.447Z,0.00
2024-03-03T02:11:33.646Z,0.00
2024-03-03T02:12:33.789Z,0.00
2024-03-03T02:13:33.972Z,0.00
2024-03-03T02:14:34.132Z,0.00
2024-03-03T02:15:34.315Z,0.00
2024-03-03T02:16:34.365Z,0.00
2024-03-03T02:17:34.560Z,0.00
2024-03-03T02:18:34.653Z,0.00
2024-03-03T02:19:34.893Z,0.00
2024-03-03T02:20:34.904Z,0.00
2024-03-03T02:21:35.064Z,0.00
2024-03-03T02:22:35.229Z,0.00
2024-03-03T02:23:35.350Z,0.00
2024-03-03T02:24:35.502Z,0.00
2024-03-03T02:25:35.655Z,0.00
2024-03-03T02:26:35.816Z,0.00
2024-03-03T02:27:35.954Z,0.00
2024-03-03T02:28:36.119Z,0.00
2024-03-03T02:29:36.295Z,0.00
2024-03-03T02:30:36.618Z,0.00
2024-03-03T02:31:36.648Z,0.00
2024-03-03T02:32:36.845Z,0.00
2024-03-03T02:33:37.001Z,0.00
2024-03-03T02:34:37.145Z,0.00
2024-03-03T02:35:37.355Z,0.00
2024-03-03T02:36:37.621Z,0.00
2024-03-03T02:37:37.650Z,0.00
2024-03-03T02:38:37.822Z,0.00
2024-03-03T02:39:38.055Z,0.00
2024-03-03T02:40:38.193Z,0.00
2024-03-03T02:41:38.345Z,0.00
2024-03-03T02:42:38.543Z,0.00
2024-03-03T02:43:38.688Z,0.00
2024-03-03T02:44:38.844Z,0.00
2024-03-03T02:45:39.142Z,0.00
2024-03-03T02:46:39.197Z,0.00
2024-03-03T02:47:39.388Z,0.00
2024-03-03T02:48:39.553Z,0.00
2024-03-03T02:49:39.709Z,0.00
2024-03-03T02:50:39.862Z,0.00
2024-03-03T02:51:40.056Z,0.00
2024-03-03T02:52:40.205Z,0.00
2024-03-03T02:53:40.392Z,0.00
2024-03-03T02:54:40.625Z,0.00
2024-03-03T02:55:40.734Z,0.00
2024-03-03T02:56:40.893Z,0.00
2024-03-03T02:57:43.417Z,0.00
2024-03-03T02:58:41.171Z,0.00
2024-03-03T02:59:41.330Z,0.00
2024-03-03T03:00:41.549Z,0.00
2024-03-03T03:01:41.733Z,0.00
2024-03-03T03:02:41.798Z,0.00
2024-03-03T03:03:41.971Z,0.00
2024-03-03T03:04:42.096Z,0.00
2024-03-03T03:05:42.272Z,0.00
2024-03-03T03:06:42.471Z,0.00
2024-03-03T03:07:42.626Z,0.00
2024-03-03T03:08:42.793Z,0.00
2024-03-03T03:09:43.015Z,0.00
2024-03-03T03:10:43.046Z,0.00
2024-03-03T03:11:43.208Z,0.00
2024-03-03T03:12:43.434Z,0.00
2024-03-03T03:13:43.573Z,0.00
2024-03-03T03:14:43.710Z,0.00
2024-03-03T03:15:43.883Z,0.00
2024-03-03T03:16:44.057Z,0.00
2024-03-03T03:17:44.255Z,0.00
2024-03-03T03:18:44.444Z,0.00
2024-03-03T03:19:44.587Z,0.00
2024-03-03T03:20:44.776Z,0.00
2024-03-03T03:21:44.946Z,0.00
2024-03-03T03:22:45.122Z,0.00
2024-03-03T03:23:45.277Z,0.00
2024-03-03T03:24:45.499Z,0.00
2024-03-03T03:25:45.563Z,0.00
2024-03-03T03:26:45.765Z,0.00
2024-03-03T03:27:45.958Z,0.00
2024-03-03T03:28:46.109Z,0.00
2024-03-03T03:29:46.277Z,0.00
2024-03-03T03:30:46.492Z,0.00
2024-03-03T03:31:46.618Z,0.00
2024-03-03T03:32:46.822Z,0.00
2024-03-03T03:33:46.988Z,0.00
2024-03-03T03:34:47.140Z,0.00
2024-03-03T03:35:47.321Z,0.00
2024-03-03T03:36:47.598Z,0.00
2024-03-03T03:37:47.685Z,0.00
2024-03-03T03:38:47.759Z,0.00
2024-03-03T03:39:47.931Z,0.00
2024-03-03T03:40:48.097Z,0.00
2024-03-03T03:41:48.357Z,0.00
2024-03-03T03:42:48.406Z,0.00
2024-03-03T03:43:48.547Z,0.00
2024-03-03T03:44:48.722Z,0.00
2024-03-03T03:45:50.714Z,0.00
2024-03-03T03:46:48.988Z,0.00
2024-03-03T03:47:49.187Z,0.00
2024-03-03T03:48:49.376Z,0.00
2024-03-03T03:49:49.517Z,0.00
2024-03-03T03:50:49.695Z,0.00
2024-03-03T03:51:49.873Z,0.00
2024-03-03T03:52:50.057Z,0.00
2024-03-03T03:53:50.222Z,0.00
2024-03-03T03:54:50.427Z,0.00
2024-03-03T03:55:50.563Z,0.00
2024-03-03T03:56:50.722Z,0.00
2024-03-03T03:57:50.880Z,0.00
2024-03-03T03:58:51.025Z,0.00
2024-03-03T03:59:51.189Z,0.00
2024-03-03T04:00:51.413Z,0.00
2024-03-03T04:01:51.587Z,0.00
2024-03-03T04:02:51.611Z,0.00
2024-03-03T04:03:51.800Z,0.00
2024-03-03T04:04:51.950Z,0.00
2024-03-03T04:05:52.107Z,0.00
2024-03-03T04:06:52.275Z,0.00
2024-03-03T04:07:52.432Z,0.00
2024-03-03T04:08:52.560Z,0.00
2024-03-03T04:09:52.764Z,0.00
2024-03-03T04:10:52.929Z,0.00
2024-03-03T04:11:53.065Z,0.00
2024-03-03T04:12:53.331Z,0.00
2024-03-03T04:13:53.368Z,0.00
2024-03-03T04:14:53.558Z,0.00
2024-03-03T04:15:53.720Z,0.00
2024-03-03T04:16:53.891Z,0.00
2024-03-03T04:17:54.085Z,0.00
2024-03-03T04:18:54.247Z,0.00
2024-03-03T04:19:54.415Z,0.00
2024-03-03T04:20:54.604Z,0.00
2024-03-03T04:21:54.744Z,0.00
2024-03-03T04:22:54.896Z,0.00
2024-03-03T04:23:55.074Z,0.00
2024-03-03T04:24:55.250Z,0.00
2024-03-03T04:25:55.393Z,0.00
2024-03-03T04:26:55.612Z,0.00
2024-03-03T04:27:55.720Z,0.00
2024-03-03T04:28:55.842Z,0.00
2024-03-03T04:29:55.996Z,0.00
2024-03-03T04:30:56.175Z,0.00
2024-03-03T04:31:56.413Z,0.00
2024-03-03T04:32:56.514Z,0.00
2024-03-03T04:33:56.651Z,0.00
2024-03-03T04:34:56.815Z,0.00
2024-03-03T04:35:56.957Z,0.00
2024-03-03T04:36:57.170Z,0.00
2024-03-03T04:37:57.324Z,0.00
2024-03-03T04:38:57.491Z,0.00
2024-03-03T04:39:57.709Z,0.00
2024-03-03T04:40:57.846Z,0.00
2024-03-03T04:41:57.984Z,0.00
2024-03-03T04:42:58.204Z,0.00
2024-03-03T04:43:58.335Z,0.00
2024-03-03T04:44:58.510Z,0.00
2024-03-03T04:45:58.855Z,0.00
2024-03-03T04:46:58.796Z,0.00
2024-03-03T04:47:59.039Z,0.00
2024-03-03T04:48:59.098Z,0.00
2024-03-03T04:49:59.229Z,0.00
2024-03-03T04:50:59.380Z,0.00
2024-03-03T04:51:59.597Z,0.00
2024-03-03T04:52:59.758Z,0.00
2024-03-03T04:53:59.949Z,0.00
2024-03-03T04:55:00.124Z,0.00
2024-03-03T04:56:00.238Z,0.00
2024-03-03T04:57:00.406Z,0.00
2024-03-03T04:58:00.610Z,0.00
2024-03-03T04:59:00.753Z,0.00
2024-03-03T05:00:00.900Z,0.00
2024-03-03T05:01:01.134Z,0.00
2024-03-03T05:02:01.207Z,0.00
2024-03-03T05:03:01.330Z,0.00
2024-03-03T05:04:01.483Z,0.00
2024-03-03T05:05:01.648Z,0.00
2024-03-03T05:06:01.779Z,0.00
2024-03-03T05:07:02.014Z,0.00
2024-03-03T05:08:02.133Z,0.00
2024-03-03T05:09:02.305Z,0.00
2024-03-03T05:10:02.546Z,0.00
2024-03-03T05:11:02.708Z,0.00
2024-03-03T05:12:02.859Z,0.00
2024-03-03T05:13:03.040Z,0.00
2024-03-03T05:14:03.128Z,0.00
2024-03-03T05:15:03.303Z,0.00
2024-03-03T05:16:03.519Z,0.00
2024-03-03T05:17:03.583Z,0.00
2024-03-03T05:18:03.760Z,0.00
2024-03-03T05:19:03.950Z,0.00
2024-03-03T05:20:04.195Z,0.00
2024-03-03T05:21:04.261Z,0.00
2024-03-03T05:22:04.439Z,0.00
2024-03-03T05:23:04.587Z,0.00
2024-03-03T05:24:04.734Z,0.00
2024-03-03T05:25:04.925Z,0.00
2024-03-03T05:26:05.067Z,0.00
2024-03-03T05:27:05.247Z,0.00
2024-03-03T05:28:05.430Z,0.00
2024-03-03T05:29:05.598Z,0.00
2024-03-03T05:30:05.765Z,0.00
2024-03-03T05:31:05.981Z,0.00
2024-03-03T05:32:06.143Z,0.00
2024-03-03T05:33:06.327Z,0.00
2024-03-03T05:34:06.735Z,0.00
2024-03-03T05:35:06.641Z,0.00
2024-03-03T05:36:06.785Z,0.00
2024-03-03T05:37:07.013Z,0.00
2024-03-03T05:38:07.013Z,0.00
2024-03-03T05:39:07.173Z,0.00
2024-03-03T05:40:07.412Z,0.00
2024-03-03T05:41:07.431Z,0.00
2024-03-03T05:42:07.592Z,0.00
2024-03-03T05:43:07.833Z,0.00
2024-03-03T05:44:07.842Z,0.00
2024-03-03T05:45:08.035Z,0.00
2024-03-03T05:46:08.262Z,0.00
2024-03-03T05:47:08.281Z,0.00
2024-03-03T05:48:08.488Z,0.00
2024-03-03T05:49:08.812Z,0.00
2024-03-03T05:50:08.828Z,0.00
2024-03-03T05:51:08.954Z,0.00
2024-03-03T05:52:09.260Z,0.00
2024-03-03T05:53:09.307Z,0.00
2024-03-03T05:54:09.470Z,0.00
2024-03-03T05:55:09.829Z,5.62
2024-03-03T05:56:09.721Z,5.62
2024-03-03T05:57:09.893Z,5.62
2024-03-03T05:58:10.149Z,5.62
2024-03-03T05:59:10.193Z,5.62
2024-03-03T06:00:10.336Z,5.62
2024-03-03T06:01:10.511Z,5.62
2024-03-03T06:02:10.579Z,5.62
2024-03-03T06:03:10.710Z,5.62
2024-03-03T06:04:10.875Z,5.62
2024-03-03T06:05:11.069Z,5.62
2024-03-03T06:06:11.252Z,5.62
2024-03-03T06:07:11.351Z,11.25
2024-03-03T06:08:11.334Z,11.25
2024-03-03T06:09:11.499Z,11.25
2024-03-03T06:10:11.675Z,11.25
2024-03-03T06:11:11.844Z,11.25
2024-03-03T06:12:12.019Z,16.88
2024-03-03T06:13:12.221Z,16.88
2024-03-03T06:14:12.330Z,16.88
2024-03-03T06:15:12.520Z,16.88
2024-03-03T06:16:12.698Z,16.88
2024-03-03T06:17:12.852Z,16.88
2024-03-03T06:18:13.074Z,22.50
2024-03-03T06:19:13.250Z,22.50
2024-03-03T06:20:13.400Z,22.50
2024-03-03T06:21:13.554Z,22.50
2024-03-03T06:22:13.793Z,28.12
2024-03-03T06:23:13.919Z,28.12
2024-03-03T06:24:14.140Z,28.12
2024-03-03T06:25:14.228Z,28.12
2024-03-03T06:26:14.347Z,28.12
2024-03-03T06:27:14.533Z,33.75
2024-03-03T06:28:14.709Z,33.75
2024-03-03T06:29:14.822Z,33.75
2024-03-03T06:30:14.979Z,39.38
2024-03-03T06:31:15.139Z,45.00
2024-03-03T06:32:15.333Z,50.62
2024-03-03T06:33:15.359Z,50.62
2024-03-03T06:34:15.571Z,56.25
2024-03-03T06:35:15.690Z,56.25
2024-03-03T06:36:15.837Z,61.88
2024-03-03T06:37:16.041Z,67.50
2024-03-03T06:38:16.176Z,67.50
2024-03-03T06:39:16.329Z,73.12
2024-03-03T06:40:16.527Z,73.12
2024-03-03T06:41:16.660Z,73.12
2024-03-03T06:42:16.836Z,78.75
2024-03-03T06:43:17.005Z,84.38
2024-03-03T06:44:17.162Z,95.62
2024-03-03T06:45:17.307Z,101.25
2024-03-03T06:46:17.532Z,106.88
2024-03-03T06:47:17.611Z,118.12
2024-03-03T06:48:17.745Z,135.00
2024-03-03T06:49:18.001Z,146.25
2024-03-03T06:50:18.003Z,157.50
2024-03-03T06:51:18.168Z,163.12
2024-03-03T06:52:18.428Z,168.75
2024-03-03T06:53:18.442Z,174.38
2024-03-03T06:54:18.599Z,174.38
2024-03-03T06:55:18.874Z,174.38
2024-03-03T06:56:18.892Z,174.38
2024-03-03T06:57:19.054Z,180.00
2024-03-03T06:58:19.357Z,180.00
2024-03-03T06:59:19.398Z,191.25
2024-03-03T07:00:19.539Z,208.12
2024-03-03T07:01:19.794Z,219.38
2024-03-03T07:02:19.808Z,230.62
2024-03-03T07:03:19.965Z,236.25
2024-03-03T07:04:20.239Z,241.88
2024-03-03T07:05:20.271Z,236.25
2024-03-03T07:06:20.405Z,208.12
2024-03-03T07:07:20.623Z,185.62
2024-03-03T07:08:20.627Z,151.88
2024-03-03T07:09:20.775Z,135.00
2024-03-03T07:10:21.095Z,123.75
2024-03-03T07:11:21.093Z,118.12
2024-03-03T07:12:21.575Z,118.12
2024-03-03T07:13:21.463Z,118.12
2024-03-03T07:14:21.408Z,123.75
2024-03-03T07:15:21.523Z,135.00
2024-03-03T07:16:21.742Z,146.25
2024-03-03T07:17:21.884Z,163.12
2024-03-03T07:18:22.006Z,191.25
2024-03-03T07:19:22.273Z,219.38
2024-03-03T07:20:22.285Z,236.25
2024-03-03T07:21:22.439Z,275.62
2024-03-03T07:22:22.693Z,298.12
2024-03-03T07:23:22.700Z,331.88
2024-03-03T07:24:22.848Z,365.62
2024-03-03T07:25:22.994Z,405.00
2024-03-03T07:26:23.139Z,433.12
2024-03-03T07:27:23.273Z,433.12
2024-03-03T07:28:23.465Z,444.38
2024-03-03T07:29:23.557Z,483.75
2024-03-03T07:30:23.785Z,455.62
2024-03-03T07:31:23.893Z,495.00
2024-03-03T07:32:24.051Z,483.75
2024-03-03T07:33:24.186Z,478.12
2024-03-03T07:34:25.338Z,489.38
2024-03-03T07:35:24.415Z,601.88
2024-03-03T07:36:24.551Z,776.25
2024-03-03T07:37:24.772Z,703.12
2024-03-03T07:38:24.819Z,534.38
2024-03-03T07:39:24.925Z,523.12
2024-03-03T07:40:25.155Z,585.00
2024-03-03T07:41:25.157Z,781.88
2024-03-03T07:42:25.378Z,888.75
2024-03-03T07:43:25.397Z,871.88
2024-03-03T07:44:26.589Z,669.38
2024-03-03T07:45:25.610Z,590.62
2024-03-03T07:46:25.772Z,568.12
2024-03-03T07:47:25.907Z,601.88
2024-03-03T07:48:26.002Z,579.38
2024-03-03T07:49:27.021Z,607.50
2024-03-03T07:50:26.219Z,585.00
2024-03-03T07:51:26.376Z,596.25
2024-03-03T07:52:26.553Z,725.62
2024-03-03T07:53:26.530Z,804.38
2024-03-03T07:54:26.652Z,838.12
2024-03-03T07:55:30.064Z,787.50
2024-03-03T07:56:26.856Z,781.88
2024-03-03T07:57:27.006Z,1001.25
2024-03-03T07:58:27.182Z,1046.25
2024-03-03T07:59:27.244Z,1035.00
2024-03-03T08:00:27.416Z,1181.25
2024-03-03T08:01:27.595Z,1327.50
2024-03-03T08:02:27.597Z,1603.12
2024-03-03T08:03:27.666Z,1535.62
2024-03-03T08:04:27.872Z,1603.12
2024-03-03T08:05:27.828Z,1586.25
2024-03-03T08:06:28.372Z,1130.62
2024-03-03T08:07:28.068Z,1198.12
2024-03-03T08:08:28.158Z,1141.88
2024-03-03T08:09:28.274Z,1018.12
2024-03-03T08:10:28.432Z,793.12
2024-03-03T08:11:28.572Z,646.88
2024-03-03T08:12:28.717Z,601.88
2024-03-03T08:13:28.741Z,596.25
2024-03-03T08:14:28.824Z,601.88
2024-03-03T08:15:28.916Z,596.25
2024-03-03T08:16:29.065Z,596.25
2024-03-03T08:17:29.186Z,601.88
2024-03-03T08:18:29.363Z,607.50
2024-03-03T08:19:29.406Z,669.38
2024-03-03T08:20:29.713Z,675.00
2024-03-03T08:21:29.622Z,613.12
2024-03-03T08:22:29.728Z,601.88
2024-03-03T08:23:29.693Z,607.50
2024-03-03T08:24:29.805Z,624.38
2024-03-03T08:25:29.955Z,618.75
2024-03-03T08:26:30.100Z,635.62
2024-03-03T08:27:30.122Z,641.25
2024-03-03T08:28:30.299Z,641.25
2024-03-03T08:29:30.287Z,635.62
2024-03-03T08:30:30.423Z,663.75
2024-03-03T08:31:30.557Z,680.62
2024-03-03T08:32:30.665Z,658.12
2024-03-03T08:33:30.775Z,658.12
2024-03-03T08:34:30.995Z,663.75
2024-03-03T08:35:31.045Z,669.38
2024-03-03T08:36:31.032Z,815.62
2024-03-03T08:37:33.089Z,1057.50
2024-03-03T08:38:31.223Z,1023.75
2024-03-03T08:39:31.343Z,933.75
2024-03-03T08:40:31.488Z,1001.25
2024-03-03T08:41:31.540Z,1878.75
2024-03-03T08:42:31.661Z,2643.75
2024-03-03T08:43:31.800Z,2778.75
2024-03-03T08:44:31.890Z,2818.12
2024-03-03T08:45:32.128Z,2874.38
2024-03-03T08:46:32.063Z,2874.38
2024-03-03T08:47:32.153Z,2835.00
2024-03-03T08:48:32.445Z,2953.12
2024-03-03T08:49:32.266Z,3043.12
2024-03-03T08:50:32.302Z,3093.75
2024-03-03T08:51:32.352Z,3234.38
2024-03-03T08:52:32.441Z,3195.00
2024-03-03T08:53:32.499Z,3037.50
2024-03-03T08:54:32.545Z,3178.12
2024-03-03T08:55:32.591Z,3273.75
2024-03-03T08:56:32.547Z,3178.12
2024-03-03T08:57:32.540Z,3161.25
2024-03-03T08:58:32.566Z,3285.00
2024-03-03T08:59:32.602Z,3397.50
2024-03-03T09:00:32.586Z,3465.00
2024-03-03T09:01:32.737Z,3318.75
2024-03-03T09:02:32.674Z,3273.75
2024-03-03T09:03:32.606Z,3301.88
2024-03-03T09:04:32.790Z,3200.62
2024-03-03T09:05:32.700Z,3256.88
2024-03-03T09:06:32.788Z,3526.88
2024-03-03T09:07:32.854Z,3526.88
2024-03-03T09:08:32.793Z,3380.62
2024-03-03T09:09:32.763Z,3476.25
2024-03-03T09:10:32.790Z,3375.00
2024-03-03T09:11:32.737Z,3453.75
2024-03-03T09:12:32.723Z,3465.00
2024-03-03T09:13:32.669Z,3346.88
2024-03-03T09:14:32.600Z,3290.62
2024-03-03T09:15:32.544Z,3313.12
2024-03-03T09:16:32.661Z,3335.62
2024-03-03T09:17:32.567Z,3268.12
2024-03-03T09:18:32.686Z,3459.38
2024-03-03T09:19:32.618Z,3526.88
2024-03-03T09:20:32.659Z,3408.75
2024-03-03T09:21:32.584Z,3448.12
2024-03-03T09:22:36.563Z,3448.12
2024-03-03T09:23:40.282Z,3498.75
2024-03-03T09:24:32.668Z,3633.75
2024-03-03T09:25:34.428Z,3645.00
2024-03-03T09:26:35.345Z,3650.62
2024-03-03T09:27:32.752Z,3718.12
2024-03-03T09:28:32.789Z,3577.50
2024-03-03T09:29:32.765Z,3841.88
2024-03-03T09:30:32.674Z,3740.62
2024-03-03T09:31:32.756Z,3639.38
2024-03-03T09:32:32.744Z,3611.25
2024-03-03T09:33:32.718Z,3706.88
2024-03-03T09:34:32.687Z,3768.75
2024-03-03T09:35:32.587Z,3915.00
2024-03-03T09:36:32.636Z,3960.00
2024-03-03T09:37:32.747Z,3768.75
2024-03-03T09:38:32.623Z,3706.88
2024-03-03T09:39:32.517Z,3633.75
2024-03-03T09:40:32.572Z,3588.75
2024-03-03T09:41:32.586Z,3515.62
2024-03-03T09:42:32.612Z,3403.12
2024-03-03T09:43:32.699Z,3583.12
2024-03-03T09:44:32.608Z,3701.25
2024-03-03T09:45:32.528Z,3830.62
2024-03-03T09:46:32.566Z,3819.38
2024-03-03T09:47:32.619Z,3898.12
2024-03-03T09:48:32.663Z,3735.00
2024-03-03T09:49:32.551Z,3836.25
2024-03-03T09:50:32.568Z,4033.12
2024-03-03T09:51:32.601Z,4111.88
2024-03-03T09:52:32.654Z,3915.00
2024-03-03T09:53:32.565Z,3785.62
2024-03-03T09:54:32.636Z,3886.88
2024-03-03T09:55:32.598Z,3881.25
2024-03-03T09:56:32.498Z,3825.00
2024-03-03T09:57:32.406Z,3757.50
2024-03-03T09:58:32.450Z,3690.00
2024-03-03T09:59:32.461Z,3656.25
2024-03-03T10:00:32.503Z,3695.62
2024-03-03T10:01:32.567Z,3690.00
2024-03-03T10:02:32.449Z,3706.88
2024-03-03T10:03:32.452Z,3706.88
2024-03-03T10:04:32.529Z,3701.25
2024-03-03T10:05:32.472Z,3673.12
2024-03-03T10:06:32.466Z,3701.25
2024-03-03T10:07:32.530Z,3673.12
2024-03-03T10:08:32.424Z,3588.75
2024-03-03T10:09:32.345Z,3622.50
2024-03-03T10:10:32.419Z,3628.12
2024-03-03T10:11:32.273Z,3605.62
2024-03-03T10:12:32.146Z,3521.25
2024-03-03T10:13:32.152Z,3498.75
2024-03-03T10:14:32.168Z,3566.25
2024-03-03T10:15:32.087Z,3481.88
2024-03-03T10:16:32.101Z,3481.88
2024-03-03T10:17:32.102Z,3504.38
2024-03-03T10:18:32.135Z,3481.88
2024-03-03T10:19:32.132Z,3605.62
2024-03-03T10:20:32.123Z,3543.75
2024-03-03T10:21:32.030Z,3318.75
2024-03-03T10:22:32.066Z,3386.25
2024-03-03T10:23:32.057Z,3420.00
2024-03-03T10:24:32.072Z,3391.88
2024-03-03T10:25:32.193Z,3256.88
2024-03-03T10:26:32.092Z,3200.62
2024-03-03T10:27:32.088Z,3110.62
2024-03-03T10:28:32.106Z,545.62
2024-03-03T10:29:34.475Z,343.12
2024-03-03T10:30:32.158Z,270.00
2024-03-03T10:31:32.218Z,292.50
2024-03-03T10:32:32.319Z,315.00
2024-03-03T10:33:32.186Z,270.00
2024-03-03T10:34:32.344Z,253.12
2024-03-03T10:35:32.264Z,264.38
2024-03-03T10:36:32.331Z,286.88
2024-03-03T10:37:32.315Z,331.88
2024-03-03T10:38:32.381Z,376.88
2024-03-03T10:39:32.331Z,455.62
2024-03-03T10:40:32.425Z,646.88
2024-03-03T10:41:32.384Z,765.00
2024-03-03T10:42:32.478Z,596.25
2024-03-03T10:43:32.491Z,652.50
2024-03-03T10:44:32.557Z,517.50
2024-03-03T10:45:32.572Z,421.88
2024-03-03T10:46:32.627Z,326.25
2024-03-03T10:47:32.612Z,320.62
2024-03-03T10:48:32.674Z,331.88
2024-03-03T10:49:32.749Z,354.38
2024-03-03T10:50:32.792Z,343.12
2024-03-03T10:51:32.871Z,365.62
2024-03-03T10:52:32.970Z,405.00
2024-03-03T10:53:33.105Z,438.75
2024-03-03T10:54:33.112Z,551.25
2024-03-03T10:55:33.230Z,742.50
2024-03-03T10:56:33.205Z,900.00
2024-03-03T10:57:33.276Z,1029.38
2024-03-03T10:58:33.373Z,1141.88
2024-03-03T10:59:33.443Z,1293.75
2024-03-03T11:00:33.571Z,1051.88
2024-03-03T11:01:33.697Z,1012.50
2024-03-03T11:02:33.676Z,1158.75
2024-03-03T11:03:33.733Z,973.12
2024-03-03T11:04:34.046Z,2593.12
2024-03-03T11:05:33.899Z,1293.75
2024-03-03T11:06:33.968Z,821.25
2024-03-03T11:07:34.075Z,939.38
2024-03-03T11:08:34.121Z,1198.12
2024-03-03T11:09:34.155Z,1749.38
2024-03-03T11:10:34.301Z,680.62
2024-03-03T11:11:34.826Z,663.75
2024-03-03T11:12:34.371Z,770.62
2024-03-03T11:13:34.428Z,821.25
2024-03-03T11:14:34.477Z,1085.62
2024-03-03T11:15:34.502Z,1006.88
2024-03-03T11:16:34.644Z,3245.62
2024-03-03T11:17:34.682Z,3150.00
2024-03-03T11:18:34.702Z,3099.38
2024-03-03T11:19:34.732Z,3245.62
2024-03-03T11:20:34.765Z,3161.25
2024-03-03T11:21:34.770Z,2986.88
2024-03-03T11:22:34.861Z,551.25
2024-03-03T11:23:34.846Z,708.75
2024-03-03T11:24:34.937Z,888.75
2024-03-03T11:25:34.960Z,1580.62
2024-03-03T11:26:34.996Z,703.12
2024-03-03T11:27:35.080Z,3048.75
2024-03-03T11:28:35.319Z,3048.75
2024-03-03T11:29:35.268Z,1805.62
2024-03-03T11:30:35.239Z,1051.88
2024-03-03T11:31:35.234Z,2908.12
2024-03-03T11:32:35.316Z,2908.12
2024-03-03T11:33:35.215Z,2790.00
2024-03-03T11:34:35.248Z,585.00
2024-03-03T11:35:35.224Z,646.88
2024-03-03T11:36:35.184Z,663.75
2024-03-03T11:37:35.378Z,658.12
2024-03-03T11:38:35.325Z,748.12
2024-03-03T11:39:35.426Z,832.50
2024-03-03T11:40:35.428Z,1704.38
2024-03-03T11:41:35.398Z,2846.25
2024-03-03T11:42:35.518Z,2778.75
2024-03-03T11:43:35.558Z,2649.38
2024-03-03T11:44:35.612Z,2632.50
2024-03-03T11:45:35.610Z,2604.38
2024-03-03T11:46:35.686Z,2621.25
2024-03-03T11:47:35.756Z,1760.62
2024-03-03T11:48:35.714Z,1108.12
2024-03-03T11:49:35.806Z,1080.00
2024-03-03T11:50:35.731Z,793.12
2024-03-03T11:51:35.695Z,590.62
2024-03-03T11:52:35.660Z,1378.12
2024-03-03T11:53:35.631Z,1687.50
2024-03-03T11:54:35.636Z,2705.62
2024-03-03T11:55:35.653Z,2520.00
2024-03-03T11:56:35.692Z,697.50
2024-03-03T11:57:35.621Z,573.75
2024-03-03T11:58:35.708Z,596.25
2024-03-03T11:59:35.649Z,556.88
2024-03-03T12:00:35.721Z,1096.88
2024-03-03T12:01:35.801Z,405.00
2024-03-03T12:02:38.461Z,556.88
2024-03-03T12:03:35.786Z,393.75
2024-03-03T12:04:35.859Z,264.38
2024-03-03T12:05:35.941Z,225.00
2024-03-03T12:06:36.023Z,208.12
2024-03-03T12:07:36.076Z,213.75
2024-03-03T12:08:36.042Z,230.62
2024-03-03T12:09:36.046Z,247.50
2024-03-03T12:10:36.123Z,264.38
2024-03-03T12:11:36.104Z,286.88
2024-03-03T12:12:36.146Z,292.50
2024-03-03T12:13:36.212Z,303.75
2024-03-03T12:14:36.205Z,315.00
2024-03-03T12:15:36.272Z,320.62
2024-03-03T12:16:36.319Z,315.00
2024-03-03T12:17:36.391Z,298.12
2024-03-03T12:18:36.466Z,281.25
2024-03-03T12:19:36.627Z,270.00
2024-03-03T12:20:36.590Z,253.12
2024-03-03T12:21:36.727Z,241.88
2024-03-03T12:22:36.717Z,225.00
2024-03-03T12:23:36.789Z,219.38
2024-03-03T12:24:36.864Z,219.38
2024-03-03T12:25:36.959Z,219.38
2024-03-03T12:26:37.020Z,225.00
2024-03-03T12:27:37.103Z,236.25
2024-03-03T12:28:37.294Z,247.50
2024-03-03T12:29:37.290Z,258.75
2024-03-03T12:30:37.342Z,270.00
2024-03-03T12:31:37.469Z,275.62
2024-03-03T12:32:37.568Z,275.62
2024-03-03T12:33:37.794Z,270.00
2024-03-03T12:34:37.705Z,264.38
2024-03-03T12:35:37.951Z,258.75
2024-03-03T12:36:37.802Z,258.75
2024-03-03T12:37:37.928Z,298.12
2024-03-03T12:38:38.035Z,241.88
2024-03-03T12:39:38.132Z,236.25
2024-03-03T12:40:38.320Z,225.00
2024-03-03T12:41:38.357Z,225.00
2024-03-03T12:42:38.493Z,225.00
2024-03-03T12:43:38.652Z,230.62
2024-03-03T12:44:38.667Z,241.88
2024-03-03T12:45:38.763Z,253.12
2024-03-03T12:46:38.962Z,264.38
2024-03-03T12:47:39.068Z,264.38
2024-03-03T12:48:39.021Z,270.00